createdAt,value
2018-10-21T00:00:04.228Z,5.00
2018-10-21T00:02:32.380Z,4.90
2018-10-21T00:05:00.526Z,4.90
2018-10-21T00:07:28.658Z,5.00
2018-10-21T00:09:56.812Z,5.10
2018-10-21T00:12:24.957Z,5.10
2018-10-21T00:14:53.145Z,5.20
2018-10-21T00:17:21.382Z,5.20
2018-10-21T00:19:49.522Z,5.20
2018-10-21T00:22:17.678Z,5.10
2018-10-21T00:24:45.838Z,5.10
2018-10-21T00:27:14.092Z,5.10
2018-10-21T00:29:42.153Z,5.00
2018-10-21T00:32:10.290Z,4.90
2018-10-21T00:34:38.383Z,4.80
2018-10-21T00:37:06.586Z,4.70
2018-10-21T00:39:34.681Z,4.70
2018-10-21T00:42:02.778Z,4.60
2018-10-21T00:44:30.854Z,4.50
2018-10-21T00:46:58.950Z,4.40
2018-10-21T00:49:27.114Z,4.30
2018-10-21T00:51:55.257Z,4.10
2018-10-21T00:54:23.366Z,4.10
2018-10-21T00:56:51.486Z,4.10
2018-10-21T00:59:19.611Z,4.00
2018-10-21T01:01:47.718Z,4.00
2018-10-21T01:04:15.912Z,3.90
2018-10-21T01:06:43.923Z,3.90
2018-10-21T01:09:13.207Z,3.90
2018-10-21T01:11:42.267Z,3.90
2018-10-21T01:14:10.486Z,4.00
2018-10-21T01:16:38.575Z,4.00
2018-10-21T01:19:06.923Z,4.00
2018-10-21T01:21:35.496Z,3.80
2018-10-21T01:24:03.610Z,3.70
2018-10-21T01:26:31.715Z,3.60
2018-10-21T01:28:59.824Z,3.50
2018-10-21T01:31:27.920Z,3.40
2018-10-21T01:33:56.031Z,3.40
2018-10-21T01:36:24.504Z,3.30
2018-10-21T01:38:52.491Z,3.30
2018-10-21T01:41:20.609Z,3.30
2018-10-21T01:43:48.717Z,3.30
2018-10-21T01:46:16.846Z,3.20
2018-10-21T01:48:44.959Z,3.10
2018-10-21T01:51:13.132Z,3.10
2018-10-21T01:53:41.141Z,3.10
2018-10-21T01:56:09.327Z,3.10
2018-10-21T01:58:37.462Z,3.00
2018-10-21T02:01:05.782Z,2.90
2018-10-21T02:03:33.934Z,2.90
2018-10-21T02:06:02.136Z,3.00
2018-10-21T02:08:30.337Z,3.00
2018-10-21T02:10:58.626Z,3.00
2018-10-21T02:13:26.770Z,3.10
2018-10-21T02:15:54.914Z,3.20
2018-10-21T02:18:23.068Z,3.10
2018-10-21T02:20:51.226Z,3.10
2018-10-21T02:23:19.390Z,3.10
2018-10-21T02:25:47.522Z,3.10
2018-10-21T02:28:15.670Z,3.10
2018-10-21T02:30:43.810Z,2.90
2018-10-21T02:33:12.075Z,2.80
2018-10-21T02:35:40.074Z,2.70
2018-10-21T02:38:08.169Z,2.80
2018-10-21T02:41:46.386Z,2.70
2018-10-21T02:44:15.746Z,2.80
2018-10-21T02:46:44.546Z,3.00
2018-10-21T02:49:13.291Z,3.10
2018-10-21T02:51:41.474Z,3.20
2018-10-21T02:54:10.016Z,3.10
2018-10-21T02:56:38.068Z,3.00
2018-10-21T02:59:06.469Z,3.00
2018-10-21T03:01:34.570Z,3.10
2018-10-21T03:04:02.847Z,3.00
2018-10-21T03:06:31.006Z,3.00
2018-10-21T03:08:59.164Z,2.90
2018-10-21T03:11:27.220Z,2.80
2018-10-21T03:13:55.292Z,2.60
2018-10-21T03:16:23.377Z,2.60
2018-10-21T03:18:51.599Z,2.60
2018-10-21T03:21:19.807Z,2.50
2018-10-21T03:23:47.954Z,2.40
2018-10-21T03:26:16.059Z,2.40
2018-10-21T03:28:44.200Z,2.30
2018-10-21T03:31:12.282Z,2.30
2018-10-21T03:33:40.493Z,2.20
2018-10-21T03:36:08.599Z,2.30
2018-10-21T03:38:36.756Z,2.30
2018-10-21T03:41:04.888Z,2.40
2018-10-21T03:43:33.029Z,2.40
2018-10-21T03:46:01.287Z,2.30
2018-10-21T03:48:29.363Z,2.30
2018-10-21T03:50:57.454Z,2.30
2018-10-21T03:53:25.615Z,2.20
2018-10-21T03:55:53.731Z,2.10
2018-10-21T03:58:21.841Z,2.20
2018-10-21T04:00:50.121Z,2.20
2018-10-21T04:03:18.271Z,2.30
2018-10-21T04:05:46.348Z,2.40
2018-10-21T04:08:14.478Z,2.30
2018-10-21T04:10:42.559Z,2.20
2018-10-21T04:13:10.778Z,2.10
2018-10-21T04:15:38.892Z,2.10
2018-10-21T04:18:07.046Z,2.10
2018-10-21T04:20:35.237Z,2.00
2018-10-21T04:23:04.083Z,2.10
2018-10-21T04:25:33.666Z,2.10
2018-10-21T04:28:02.786Z,2.20
2018-10-21T04:30:31.842Z,2.20
2018-10-21T04:34:03.296Z,2.30
2018-10-21T04:36:32.678Z,2.20
2018-10-21T04:39:17.796Z,2.10
2018-10-21T04:41:46.014Z,2.00
2018-10-21T04:44:14.109Z,1.90
2018-10-21T04:46:42.329Z,1.90
2018-10-21T04:49:10.357Z,1.80
2018-10-21T04:51:38.490Z,1.80
2018-10-21T04:54:06.600Z,1.80
2018-10-21T04:56:34.767Z,1.80
2018-10-21T04:59:02.926Z,1.80
2018-10-21T05:01:31.042Z,1.70
2018-10-21T05:03:59.254Z,1.60
2018-10-21T05:06:27.539Z,1.60
2018-10-21T05:08:55.706Z,1.80
2018-10-21T05:11:23.863Z,1.80
2018-10-21T05:13:52.063Z,1.80
2018-10-21T05:16:20.341Z,2.00
2018-10-21T05:18:48.482Z,2.00
2018-10-21T05:21:16.670Z,1.90
2018-10-21T05:23:44.836Z,1.90
2018-10-21T05:26:13.545Z,1.80
2018-10-21T05:28:41.848Z,1.80
2018-10-21T05:31:09.974Z,1.70
2018-10-21T05:33:38.254Z,1.70
2018-10-21T05:36:06.470Z,1.80
2018-10-21T05:38:34.714Z,1.80
2018-10-21T05:41:02.886Z,1.80
2018-10-21T05:43:31.082Z,1.90
2018-10-21T05:45:59.236Z,1.90
2018-10-21T05:48:27.386Z,1.70
2018-10-21T05:50:55.568Z,1.60
2018-10-21T05:53:23.819Z,1.50
2018-10-21T05:55:52.039Z,1.50
2018-10-21T05:58:20.360Z,1.70
2018-10-21T06:00:48.466Z,1.80
2018-10-21T06:03:16.675Z,1.90
2018-10-21T06:05:46.998Z,1.90
2018-10-21T06:08:15.162Z,1.80
2018-10-21T06:10:43.861Z,1.70
2018-10-21T06:13:12.294Z,1.70
2018-10-21T06:15:40.615Z,1.70
2018-10-21T06:18:12.979Z,1.90
2018-10-21T06:20:45.421Z,1.90
2018-10-21T06:23:13.597Z,1.90
2018-10-21T06:25:41.727Z,1.90
2018-10-21T06:28:09.887Z,2.00
2018-10-21T06:30:38.072Z,2.10
2018-10-21T06:33:06.333Z,2.10
2018-10-21T06:35:34.545Z,2.00
2018-10-21T06:38:02.733Z,2.00
2018-10-21T06:40:30.858Z,2.10
2018-10-21T06:42:59.003Z,2.10
2018-10-21T06:45:27.237Z,2.20
2018-10-21T06:47:55.331Z,2.20
2018-10-21T06:50:23.486Z,2.20
2018-10-21T06:52:51.631Z,2.30
2018-10-21T06:55:19.766Z,2.30
2018-10-21T06:57:48.016Z,2.30
2018-10-21T07:00:16.102Z,2.40
2018-10-21T07:02:44.257Z,2.40
2018-10-21T07:05:24.045Z,2.40
2018-10-21T07:07:52.493Z,2.40
2018-10-21T07:10:21.082Z,2.40
2018-10-21T07:12:49.242Z,2.50
2018-10-21T07:15:17.713Z,2.40
2018-10-21T07:17:45.990Z,2.50
2018-10-21T07:20:14.202Z,2.50
2018-10-21T07:22:43.492Z,2.50
2018-10-21T07:25:11.614Z,2.60
2018-10-21T07:27:40.207Z,2.60
2018-10-21T07:30:09.846Z,2.60
2018-10-21T07:32:38.350Z,2.80
2018-10-21T07:35:07.930Z,2.90
2018-10-21T07:37:36.006Z,3.00
2018-10-21T07:40:04.423Z,3.20
2018-10-21T07:42:32.507Z,3.30
2018-10-21T07:45:00.587Z,3.30
2018-10-21T07:47:28.679Z,3.20
2018-10-21T07:49:56.914Z,3.30
2018-10-21T07:52:25.246Z,3.30
2018-10-21T07:54:53.527Z,3.40
2018-10-21T07:57:21.642Z,3.40
2018-10-21T07:59:49.763Z,3.60
2018-10-21T08:02:17.870Z,3.60
2018-10-21T08:04:45.986Z,3.70
2018-10-21T08:07:25.506Z,3.70
2018-10-21T08:09:53.661Z,3.60
2018-10-21T08:12:21.733Z,3.50
2018-10-21T08:14:49.936Z,3.50
2018-10-21T08:17:18.062Z,3.50
2018-10-21T08:19:46.226Z,3.50
2018-10-21T08:22:14.424Z,3.60
2018-10-21T08:24:42.490Z,3.70
2018-10-21T08:27:10.649Z,3.80
2018-10-21T08:29:38.752Z,4.00
2018-10-21T08:32:06.879Z,4.10
2018-10-21T08:34:35.054Z,4.20
2018-10-21T08:37:03.225Z,4.30
2018-10-21T08:39:31.370Z,4.50
2018-10-21T08:41:59.490Z,4.60
2018-10-21T08:44:27.616Z,4.70
2018-10-21T08:46:55.746Z,4.90
2018-10-21T08:49:23.913Z,5.10
2018-10-21T08:51:51.970Z,5.20
2018-10-21T08:54:20.099Z,5.40
2018-10-21T08:56:48.466Z,5.60
2018-10-21T08:59:16.590Z,5.80
2018-10-21T09:01:44.734Z,6.00
2018-10-21T09:04:12.916Z,6.40
2018-10-21T09:06:41.158Z,6.70
2018-10-21T09:09:10.629Z,7.10
2018-10-21T09:11:38.755Z,7.50
2018-10-21T09:14:06.959Z,7.90
2018-10-21T09:16:35.160Z,8.30
2018-10-21T09:19:03.239Z,8.80
2018-10-21T09:21:31.398Z,9.10
2018-10-21T09:23:59.538Z,9.40
2018-10-21T09:26:27.663Z,9.80
2018-10-21T09:28:55.845Z,10.10
2018-10-21T09:31:24.058Z,10.40
2018-10-21T09:33:52.313Z,10.70
2018-10-21T09:36:20.538Z,10.90
2018-10-21T09:38:48.722Z,11.00
2018-10-21T09:41:17.071Z,11.10
2018-10-21T09:43:45.212Z,11.20
2018-10-21T09:46:13.473Z,11.30
2018-10-21T09:48:41.499Z,11.40
2018-10-21T09:51:09.667Z,11.40
2018-10-21T09:53:37.867Z,11.50
2018-10-21T09:56:06.046Z,11.60
2018-10-21T09:58:34.264Z,11.70
2018-10-21T10:01:07.897Z,11.90
2018-10-21T10:03:35.922Z,12.10
2018-10-21T10:06:04.007Z,12.30
2018-10-21T10:08:32.191Z,12.60
2018-10-21T10:11:00.270Z,12.80
2018-10-21T10:13:28.440Z,12.90
2018-10-21T10:15:56.645Z,13.10
2018-10-21T10:18:24.751Z,13.30
2018-10-21T10:20:52.946Z,13.50
2018-10-21T10:23:21.103Z,13.60
2018-10-21T10:25:49.159Z,13.90
2018-10-21T10:28:17.278Z,14.00
2018-10-21T10:30:45.551Z,14.30
2018-10-21T10:33:13.842Z,14.60
2018-10-21T10:35:42.131Z,14.90
2018-10-21T10:38:10.295Z,15.30
2018-10-21T10:40:38.563Z,15.70
2018-10-21T10:43:06.566Z,16.20
2018-10-21T10:45:34.595Z,16.70
2018-10-21T10:48:02.698Z,16.90
2018-10-21T10:50:30.801Z,17.60
2018-10-21T10:52:58.931Z,17.90
2018-10-21T10:55:32.627Z,17.80
2018-10-21T10:58:00.813Z,17.70
2018-10-21T11:00:28.943Z,17.70
2018-10-21T11:02:57.140Z,17.20
2018-10-21T11:05:25.275Z,16.70
2018-10-21T11:07:53.442Z,16.20
2018-10-21T11:10:21.575Z,15.80
2018-10-21T11:12:49.707Z,15.30
2018-10-21T11:15:17.942Z,15.00
2018-10-21T11:17:46.102Z,14.80
2018-10-21T11:20:14.274Z,14.70
2018-10-21T11:22:42.479Z,14.70
2018-10-21T11:25:10.587Z,14.60
2018-10-21T11:27:38.670Z,14.50
2018-10-21T11:30:07.078Z,14.40
2018-10-21T11:32:35.230Z,14.30
2018-10-21T11:35:03.465Z,14.30
2018-10-21T11:37:31.817Z,14.20
2018-10-21T11:40:00.919Z,14.10
2018-10-21T11:42:29.000Z,14.20
2018-10-21T11:44:57.123Z,14.60
2018-10-21T11:47:25.354Z,14.80
2018-10-21T11:49:53.478Z,15.70
2018-10-21T11:52:22.261Z,16.80
2018-10-21T11:54:50.371Z,16.90
2018-10-21T11:57:18.498Z,16.80
2018-10-21T11:59:46.670Z,16.50
2018-10-21T12:02:14.787Z,16.30
2018-10-21T12:04:43.050Z,16.20
2018-10-21T12:07:11.259Z,17.90
2018-10-21T12:09:39.306Z,19.70
2018-10-21T12:12:07.449Z,21.20
2018-10-21T12:14:35.570Z,22.60
2018-10-21T12:17:03.698Z,24.00
2018-10-21T12:19:31.824Z,25.20
2018-10-21T12:21:59.943Z,25.60
2018-10-21T12:24:28.089Z,26.10
2018-10-21T12:26:56.294Z,25.70
2018-10-21T12:29:24.436Z,24.80
2018-10-21T12:31:52.575Z,24.20
2018-10-21T12:34:20.693Z,23.30
2018-10-21T12:36:48.813Z,22.00
2018-10-21T12:39:17.029Z,21.00
2018-10-21T12:41:45.161Z,20.10
2018-10-21T12:44:13.274Z,20.00
2018-10-21T12:46:41.390Z,21.40
2018-10-21T12:49:09.575Z,22.40
2018-10-21T12:51:37.814Z,23.80
2018-10-21T12:54:06.251Z,24.40
2018-10-21T12:56:34.298Z,25.20
2018-10-21T12:59:02.423Z,24.80
2018-10-21T13:01:30.481Z,24.70
2018-10-21T13:03:58.599Z,25.10
2018-10-21T13:06:26.658Z,26.10
2018-10-21T13:08:54.786Z,26.60
2018-10-21T13:11:23.142Z,26.90
2018-10-21T13:13:51.215Z,27.40
2018-10-21T13:16:19.319Z,27.70
2018-10-21T13:18:47.394Z,27.50
2018-10-21T13:21:15.482Z,27.50
2018-10-21T13:23:43.625Z,27.80
2018-10-21T13:26:11.735Z,27.70
2018-10-21T13:28:39.843Z,28.10
2018-10-21T13:31:07.969Z,28.00
2018-10-21T13:33:36.006Z,26.90
2018-10-21T13:36:04.338Z,25.70
2018-10-21T13:38:32.459Z,24.40
2018-10-21T13:41:00.549Z,22.80
2018-10-21T13:43:28.629Z,21.80
2018-10-21T13:45:56.800Z,21.40
2018-10-21T13:48:24.804Z,21.10
2018-10-21T13:50:52.891Z,20.60
2018-10-21T13:53:21.043Z,19.90
2018-10-21T13:55:49.143Z,19.50
2018-10-21T13:58:17.527Z,19.10
2018-10-21T14:00:45.622Z,19.10
2018-10-21T14:03:13.667Z,19.00
2018-10-21T14:05:41.794Z,18.70
2018-10-21T14:08:09.927Z,18.30
2018-10-21T14:10:38.081Z,17.90
2018-10-21T14:13:06.560Z,17.60
2018-10-21T14:15:34.628Z,17.20
2018-10-21T14:18:02.763Z,16.90
2018-10-21T14:20:30.918Z,16.60
2018-10-21T14:22:59.070Z,16.40
2018-10-21T14:25:27.267Z,16.20
2018-10-21T14:27:55.394Z,16.00
2018-10-21T14:30:23.502Z,15.80
2018-10-21T14:32:51.683Z,15.60
2018-10-21T14:35:19.769Z,15.50
2018-10-21T14:37:47.909Z,15.40
2018-10-21T14:40:15.950Z,15.40
2018-10-21T14:42:44.036Z,15.30
2018-10-21T14:45:12.915Z,15.20
2018-10-21T14:47:41.303Z,15.10
2018-10-21T14:50:10.397Z,15.10
2018-10-21T14:52:38.495Z,15.00
2018-10-21T14:55:07.921Z,14.90
2018-10-21T14:57:36.044Z,14.90
2018-10-21T15:00:05.642Z,14.80
2018-10-21T15:02:33.727Z,14.80
2018-10-21T15:05:01.954Z,14.70
2018-10-21T15:07:30.186Z,14.50
2018-10-21T15:09:58.317Z,14.50
2018-10-21T15:12:26.601Z,14.30
2018-10-21T15:14:54.699Z,14.20
2018-10-21T15:17:22.772Z,14.00
2018-10-21T15:19:50.979Z,13.90
2018-10-21T15:22:19.138Z,13.80
2018-10-21T15:24:47.142Z,13.60
2018-10-21T15:27:15.228Z,13.50
2018-10-21T15:29:43.363Z,13.30
2018-10-21T15:32:11.542Z,13.20
2018-10-21T15:34:39.537Z,13.00
2018-10-21T15:37:07.630Z,12.90
2018-10-21T15:39:35.721Z,12.60
2018-10-21T15:42:03.931Z,12.40
2018-10-21T15:44:32.034Z,12.20
2018-10-21T15:47:00.133Z,12.10
2018-10-21T15:49:28.210Z,11.90
2018-10-21T15:51:56.393Z,11.80
2018-10-21T15:54:24.378Z,11.60
2018-10-21T15:56:52.458Z,11.50
2018-10-21T15:59:20.597Z,11.40
2018-10-21T16:01:48.754Z,11.20
2018-10-21T16:04:16.962Z,11.10
2018-10-21T16:06:45.147Z,11.00
2018-10-21T16:09:13.699Z,10.90
2018-10-21T16:11:41.930Z,10.80
2018-10-21T16:14:10.116Z,10.80
2018-10-21T16:16:38.186Z,10.60
2018-10-21T16:19:06.307Z,10.50
2018-10-21T16:21:34.470Z,10.30
2018-10-21T16:24:02.770Z,10.20
2018-10-21T16:26:30.966Z,10.10
2018-10-21T16:28:59.030Z,10.00
2018-10-21T16:31:27.297Z,9.80
2018-10-21T16:33:55.460Z,9.60
2018-10-21T16:36:23.625Z,9.40
2018-10-21T16:38:51.785Z,9.20
2018-10-21T16:41:20.962Z,9.00
2018-10-21T16:43:49.098Z,8.90
2018-10-21T16:46:17.295Z,8.70
2018-10-21T16:48:45.510Z,8.60
2018-10-21T16:51:14.009Z,8.50
2018-10-21T16:53:42.202Z,8.30
2018-10-21T16:56:10.319Z,8.20
2018-10-21T16:58:38.437Z,8.10
2018-10-21T17:01:06.778Z,8.00
2018-10-21T17:03:34.980Z,7.90
2018-10-21T17:06:03.191Z,7.80
2018-10-21T17:08:31.364Z,7.70
2018-10-21T17:10:59.538Z,7.60
2018-10-21T17:13:27.671Z,7.50
2018-10-21T17:15:55.841Z,7.40
2018-10-21T17:18:23.971Z,7.30
2018-10-21T17:20:52.149Z,7.20
2018-10-21T17:23:20.316Z,7.10
2018-10-21T17:25:48.446Z,7.10
2018-10-21T17:28:16.674Z,7.00
2018-10-21T17:30:44.826Z,7.00
2018-10-21T17:33:13.024Z,6.90
2018-10-21T17:35:41.323Z,6.80
2018-10-21T17:38:09.492Z,6.80
2018-10-21T17:40:37.687Z,6.80
2018-10-21T17:43:05.819Z,6.70
2018-10-21T17:45:33.896Z,6.60
2018-10-21T17:48:02.059Z,6.60
2018-10-21T17:50:30.192Z,6.60
2018-10-21T17:52:58.353Z,6.50
2018-10-21T17:55:26.477Z,6.50
2018-10-21T17:57:54.693Z,6.40
2018-10-21T18:00:22.771Z,6.40
2018-10-21T18:02:50.906Z,6.30
2018-10-21T18:05:19.214Z,6.30
2018-10-21T18:07:47.355Z,6.20
2018-10-21T18:10:15.722Z,6.10
2018-10-21T18:12:43.781Z,6.10
2018-10-21T18:15:12.289Z,6.00
2018-10-21T18:17:41.048Z,5.90
2018-10-21T18:20:10.378Z,5.80
2018-10-21T18:22:38.596Z,5.80
2018-10-21T18:25:07.657Z,5.70
2018-10-21T18:27:35.747Z,5.70
2018-10-21T18:30:03.982Z,5.70
2018-10-21T18:32:32.145Z,5.60
2018-10-21T18:35:00.258Z,5.60
2018-10-21T18:37:28.403Z,5.60
2018-10-21T18:39:56.563Z,5.50
2018-10-21T18:42:24.658Z,5.50
2018-10-21T18:44:52.812Z,5.50
2018-10-21T18:47:20.935Z,5.40
2018-10-21T18:49:49.059Z,5.40
2018-10-21T18:52:17.314Z,5.30
2018-10-21T18:54:45.318Z,5.30
2018-10-21T18:57:13.434Z,5.30
2018-10-21T18:59:41.638Z,5.20
2018-10-21T19:02:09.775Z,5.20
2018-10-21T19:04:37.975Z,5.20
2018-10-21T19:07:06.455Z,5.20
2018-10-21T19:09:34.512Z,5.10
2018-10-21T19:12:02.607Z,5.10
2018-10-21T19:14:30.849Z,5.00
2018-10-21T19:16:58.972Z,5.10
2018-10-21T19:19:27.083Z,5.00
2018-10-21T19:21:55.235Z,5.00
2018-10-21T19:24:23.374Z,5.00
2018-10-21T19:26:52.474Z,4.90
2018-10-21T19:29:20.603Z,4.90
2018-10-21T19:31:48.771Z,4.90
2018-10-21T19:34:17.021Z,4.90
2018-10-21T19:36:45.166Z,4.90
2018-10-21T19:39:13.862Z,4.90
2018-10-21T19:41:42.075Z,4.90
2018-10-21T19:44:10.911Z,4.80
2018-10-21T19:46:39.291Z,4.70
2018-10-21T19:49:07.993Z,4.70
2018-10-21T19:51:36.157Z,4.70
2018-10-21T19:54:04.687Z,4.70
2018-10-21T19:56:32.806Z,4.60
2018-10-21T19:59:02.755Z,4.60
2018-10-21T20:01:30.999Z,4.50
2018-10-21T20:03:59.139Z,4.50
2018-10-21T20:06:27.218Z,4.50
2018-10-21T20:08:55.331Z,4.50
2018-10-21T20:11:23.403Z,4.50
2018-10-21T20:13:51.639Z,4.50
2018-10-21T20:16:19.939Z,4.50
2018-10-21T20:18:48.011Z,4.50
2018-10-21T20:21:16.130Z,4.40
2018-10-21T20:23:44.267Z,4.40
2018-10-21T20:26:12.329Z,4.40
2018-10-21T20:28:40.406Z,4.40
2018-10-21T20:31:08.552Z,4.40
2018-10-21T20:33:36.662Z,4.40
2018-10-21T20:36:04.702Z,4.40
2018-10-21T20:38:32.779Z,4.40
2018-10-21T20:41:00.936Z,4.30
2018-10-21T20:43:28.989Z,4.30
2018-10-21T20:45:57.129Z,4.20
2018-10-21T20:48:25.253Z,4.20
2018-10-21T20:50:53.369Z,4.20
2018-10-21T20:53:21.510Z,4.20
2018-10-21T20:55:49.634Z,4.20
2018-10-21T20:58:17.789Z,4.20
2018-10-21T21:00:45.892Z,4.20
2018-10-21T21:03:14.095Z,4.20
2018-10-21T21:05:49.045Z,4.10
2018-10-21T21:08:23.719Z,4.10
2018-10-21T21:10:51.786Z,4.10
2018-10-21T21:13:19.857Z,4.00
2018-10-21T21:15:47.942Z,3.90
2018-10-21T21:18:16.154Z,4.00
2018-10-21T21:20:44.225Z,4.00
2018-10-21T21:23:12.167Z,4.00
2018-10-21T21:25:40.237Z,3.90
2018-10-21T21:28:08.651Z,3.90
2018-10-21T21:30:37.117Z,3.80
2018-10-21T21:33:05.563Z,3.70
2018-10-21T21:35:33.646Z,3.70
2018-10-21T21:38:01.789Z,3.70
2018-10-21T21:40:29.853Z,3.70
2018-10-21T21:42:58.775Z,3.70
2018-10-21T21:45:26.868Z,3.70
2018-10-21T21:47:55.051Z,3.70
2018-10-21T21:50:23.179Z,3.70
2018-10-21T21:52:51.305Z,3.70
2018-10-21T21:55:19.420Z,3.60
2018-10-21T21:57:47.534Z,3.60
2018-10-21T22:00:15.758Z,3.60
2018-10-21T22:02:43.880Z,3.60
2018-10-21T22:05:12.007Z,3.50
2018-10-21T22:07:40.734Z,3.50
2018-10-21T22:10:10.997Z,3.50
2018-10-21T22:12:39.097Z,3.50
2018-10-21T22:15:07.226Z,3.50
2018-10-21T22:17:35.463Z,3.50
2018-10-21T22:20:03.622Z,3.40
2018-10-21T22:22:31.746Z,3.40
2018-10-21T22:24:59.863Z,3.40
2018-10-21T22:27:28.029Z,3.30
2018-10-21T22:29:56.200Z,3.30
2018-10-21T22:32:24.279Z,3.30
2018-10-21T22:34:52.469Z,3.30
2018-10-21T22:37:20.594Z,3.40
2018-10-21T22:39:48.733Z,3.30
2018-10-21T22:42:17.029Z,3.30
2018-10-21T22:44:45.020Z,3.40
2018-10-21T22:47:13.182Z,3.50
2018-10-21T22:49:41.415Z,3.50
2018-10-21T22:54:42.882Z,3.50
2018-10-21T22:57:18.049Z,3.70
2018-10-21T22:59:47.350Z,3.80
2018-10-21T23:02:15.720Z,3.90
2018-10-21T23:04:44.074Z,4.00
2018-10-21T23:07:12.134Z,4.10
2018-10-21T23:09:40.205Z,4.10
2018-10-21T23:12:08.544Z,4.00
2018-10-21T23:14:36.667Z,3.90
2018-10-21T23:17:04.903Z,3.80
2018-10-21T23:19:49.718Z,3.70
2018-10-21T23:22:17.989Z,3.60
2018-10-21T23:24:45.919Z,3.50
2018-10-21T23:27:14.345Z,3.50
2018-10-21T23:29:43.226Z,3.50
2018-10-21T23:32:11.306Z,3.50
2018-10-21T23:34:39.398Z,3.50
2018-10-21T23:37:07.498Z,3.50
2018-10-21T23:39:35.579Z,3.40
2018-10-21T23:42:03.745Z,3.40
2018-10-21T23:44:31.846Z,3.30
2018-10-21T23:46:59.927Z,3.30
2018-10-21T23:49:28.010Z,3.30
2018-10-21T23:51:56.148Z,3.30
2018-10-21T23:54:24.263Z,3.30
2018-10-21T23:56:52.410Z,3.30
2018-10-21T23:59:20.538Z,3.20
